Terminal Aerodrome Forecast
Issued by NWS Oklahoma City, OK

Home | Current Version | Previous Version | Text Only | Print | Product List | Glossary On
Versions: 1 2 3 4 5 6 7 8 9 10 11 12
000
FTUS44 KOUN 250530
TAFOUN
TAF
KOUN 250530Z 2506/2606 15006KT P6SM SCT100 SCT250
     FM251400 15008KT P6SM BKN050 BKN120 PROB30 2518/2524 4SM TSRA
      BKN050CB
     FM260000 12006KT P6SM BKN070 BKN150 PROB30 2600/2603 2SM TSRA
      BKN050CB OVC150=

USA.gov is the U.S. government's official web portal to all federal, state and local government web resources and services.